createdAt,value
2022-11-02T00:02:17.398Z,8.70
2022-11-02T00:04:44.542Z,8.70
2022-11-02T00:07:11.736Z,8.70
2022-11-02T00:09:39.052Z,8.70
2022-11-02T00:12:06.781Z,8.80
2022-11-02T00:14:33.873Z,8.80
2022-11-02T00:17:01.031Z,8.70
2022-11-02T00:19:28.892Z,8.70
2022-11-02T00:21:58.930Z,8.70
2022-11-02T00:24:26.137Z,8.80
2022-11-02T00:26:54.177Z,8.80
2022-11-02T00:29:23.637Z,8.80
2022-11-02T00:31:51.046Z,8.80
2022-11-02T00:34:18.366Z,8.90
2022-11-02T00:36:45.811Z,8.80
2022-11-02T00:39:13.047Z,8.80
2022-11-02T00:41:40.249Z,8.80
2022-11-02T00:44:07.502Z,8.80
2022-11-02T00:46:34.989Z,8.80
2022-11-02T00:49:02.110Z,8.80
2022-11-02T00:51:29.574Z,8.80
2022-11-02T00:53:56.932Z,8.70
2022-11-02T00:56:24.010Z,8.70
2022-11-02T00:58:51.715Z,8.70
2022-11-02T01:01:18.927Z,8.70
2022-11-02T01:03:46.305Z,8.70
2022-11-02T01:06:15.795Z,8.60
2022-11-02T01:08:42.865Z,8.60
2022-11-02T01:11:12.289Z,8.60
2022-11-02T01:13:39.563Z,8.60
2022-11-02T01:16:07.479Z,8.60
2022-11-02T01:18:35.008Z,8.60
2022-11-02T01:21:02.392Z,8.60
2022-11-02T01:23:36.221Z,8.60
2022-11-02T01:26:08.863Z,8.60
2022-11-02T01:28:36.612Z,8.60
2022-11-02T01:31:04.162Z,8.60
2022-11-02T01:33:31.687Z,8.60
2022-11-02T01:35:59.258Z,8.60
2022-11-02T01:38:26.293Z,8.60
2022-11-02T01:40:53.416Z,8.60
2022-11-02T01:43:23.137Z,8.60
2022-11-02T01:46:01.106Z,8.60
2022-11-02T01:48:39.646Z,8.60
2022-11-02T01:51:10.755Z,8.60
2022-11-02T01:53:43.019Z,8.60
2022-11-02T01:56:12.722Z,8.60
2022-11-02T01:58:40.236Z,8.60
2022-11-02T02:01:09.223Z,8.70
2022-11-02T02:03:38.059Z,8.70
2022-11-02T02:06:12.711Z,8.70
2022-11-02T02:08:44.809Z,8.70
2022-11-02T02:11:41.230Z,8.80
2022-11-02T02:14:15.236Z,8.80
2022-11-02T02:17:18.750Z,8.80
2022-11-02T02:20:23.069Z,8.90
2022-11-02T02:23:05.437Z,8.90
2022-11-02T02:25:52.724Z,9.00
2022-11-02T02:28:53.862Z,9.00
2022-11-02T02:31:53.742Z,9.00
2022-11-02T02:34:31.005Z,9.00
2022-11-02T02:37:30.717Z,9.00
2022-11-02T02:40:06.086Z,8.90
2022-11-02T02:42:48.587Z,8.90
2022-11-02T02:45:41.536Z,8.90
2022-11-02T02:48:21.239Z,8.90
2022-11-02T02:50:51.047Z,8.90
2022-11-02T02:53:24.594Z,8.80
2022-11-02T02:55:52.903Z,8.80
2022-11-02T02:58:24.388Z,8.80
2022-11-02T03:01:18.258Z,8.80
2022-11-02T03:03:47.311Z,8.80
2022-11-02T03:06:30.589Z,8.80
2022-11-02T03:09:48.450Z,8.90
2022-11-02T03:12:21.495Z,8.90
2022-11-02T03:15:01.004Z,8.90
2022-11-02T03:17:33.159Z,8.90
2022-11-02T03:20:27.176Z,8.90
2022-11-02T03:23:30.874Z,8.90
2022-11-02T03:26:07.607Z,8.80
2022-11-02T03:29:06.717Z,8.80
2022-11-02T03:31:47.504Z,8.80
2022-11-02T03:34:29.739Z,8.80
2022-11-02T03:37:19.625Z,8.80
2022-11-02T03:39:51.258Z,8.70
2022-11-02T03:42:23.295Z,8.70
2022-11-02T03:45:05.244Z,8.70
2022-11-02T03:47:36.533Z,8.70
2022-11-02T03:50:11.346Z,8.70
2022-11-02T03:52:42.197Z,8.70
2022-11-02T03:55:41.502Z,8.70
2022-11-02T03:58:12.553Z,8.70
2022-11-02T04:00:53.151Z,8.70
2022-11-02T04:03:23.762Z,8.60
2022-11-02T04:05:51.645Z,8.60
2022-11-02T04:08:48.247Z,8.60
2022-11-02T04:11:36.758Z,8.60
2022-11-02T04:14:27.558Z,8.60
2022-11-02T04:17:16.075Z,8.60
2022-11-02T04:19:50.084Z,8.60
2022-11-02T04:22:38.113Z,8.60
2022-11-02T04:25:21.128Z,8.50
2022-11-02T04:28:09.904Z,8.50
2022-11-02T04:31:01.698Z,8.40
2022-11-02T04:33:34.003Z,8.30
2022-11-02T04:36:16.049Z,8.30
2022-11-02T04:38:45.599Z,8.30
2022-11-02T04:41:41.958Z,8.20
2022-11-02T04:44:18.450Z,8.20
2022-11-02T04:46:58.630Z,8.20
2022-11-02T04:49:29.623Z,8.20
2022-11-02T04:51:57.044Z,8.20
2022-11-02T04:54:25.465Z,8.10
2022-11-02T04:56:57.222Z,8.20
2022-11-02T04:59:26.112Z,8.10
2022-11-02T05:01:53.713Z,8.10
2022-11-02T05:04:21.410Z,8.10
2022-11-02T05:06:49.461Z,8.10
2022-11-02T05:09:18.301Z,8.10
2022-11-02T05:11:47.592Z,8.00
2022-11-02T05:14:14.882Z,8.00
2022-11-02T05:16:42.651Z,7.90
2022-11-02T05:19:11.775Z,7.90
2022-11-02T05:21:40.143Z,7.90
2022-11-02T05:24:07.980Z,7.80
2022-11-02T05:26:35.746Z,7.80
2022-11-02T05:29:03.621Z,7.80
2022-11-02T05:31:30.786Z,7.80
2022-11-02T05:33:58.679Z,7.80
2022-11-02T05:36:25.861Z,7.80
2022-11-02T05:38:56.424Z,7.80
2022-11-02T05:41:24.328Z,7.80
2022-11-02T05:43:54.559Z,7.80
2022-11-02T05:46:23.565Z,7.80
2022-11-02T05:48:50.788Z,7.80
2022-11-02T05:51:18.035Z,7.80
2022-11-02T05:53:45.137Z,7.80
2022-11-02T05:56:13.582Z,7.80
2022-11-02T05:58:41.056Z,7.70
2022-11-02T06:01:09.380Z,7.70
2022-11-02T06:03:36.820Z,7.70
2022-11-02T06:06:06.863Z,7.70
2022-11-02T06:08:35.362Z,7.60
2022-11-02T06:11:06.716Z,7.60
2022-11-02T06:13:34.615Z,7.60
2022-11-02T06:16:02.999Z,7.50
2022-11-02T06:18:31.650Z,7.50
2022-11-02T06:20:59.478Z,7.40
2022-11-02T06:23:27.765Z,7.40
2022-11-02T06:25:59.581Z,7.40
2022-11-02T06:28:27.335Z,7.40
2022-11-02T06:30:54.655Z,7.30
2022-11-02T06:33:22.130Z,7.30
2022-11-02T06:35:51.999Z,7.30
2022-11-02T06:38:19.500Z,7.30
2022-11-02T06:41:05.700Z,7.20
2022-11-02T06:43:36.849Z,7.20
2022-11-02T06:46:04.438Z,7.20
2022-11-02T06:48:35.281Z,7.20
2022-11-02T06:51:04.291Z,7.20
2022-11-02T06:53:33.184Z,7.20
2022-11-02T06:56:01.259Z,7.20
2022-11-02T06:58:28.397Z,7.20
2022-11-02T07:01:02.198Z,7.20
2022-11-02T07:03:30.342Z,7.10
2022-11-02T07:05:58.065Z,7.10
2022-11-02T07:08:25.691Z,7.10
2022-11-02T07:10:52.848Z,7.10
2022-11-02T07:13:20.561Z,7.00
2022-11-02T07:15:47.770Z,7.00
2022-11-02T07:18:14.877Z,7.00
2022-11-02T07:20:42.004Z,7.10
2022-11-02T07:23:10.189Z,7.00
2022-11-02T07:25:37.447Z,6.90
2022-11-02T07:28:04.970Z,6.90
2022-11-02T07:30:33.467Z,6.90
2022-11-02T07:33:01.313Z,6.90
2022-11-02T07:35:28.839Z,6.90
2022-11-02T07:37:57.919Z,6.90
2022-11-02T07:40:25.732Z,6.90
2022-11-02T07:43:23.910Z,6.90
2022-11-02T07:46:10.329Z,6.90
2022-11-02T07:48:37.473Z,6.90
2022-11-02T07:51:05.805Z,6.90
2022-11-02T07:53:33.069Z,6.90
2022-11-02T07:56:01.216Z,6.90
2022-11-02T07:58:28.340Z,7.00
2022-11-02T08:00:59.986Z,6.90
2022-11-02T08:03:28.961Z,7.00
2022-11-02T08:05:56.418Z,7.00
2022-11-02T08:11:16.566Z,7.00
2022-11-02T08:13:44.259Z,7.10
2022-11-02T08:16:11.751Z,7.10
2022-11-02T08:18:38.820Z,7.20
2022-11-02T08:21:06.231Z,7.20
2022-11-02T08:23:33.427Z,7.30
2022-11-02T08:26:00.700Z,7.30
2022-11-02T08:28:32.269Z,7.40
2022-11-02T08:30:59.835Z,7.40
2022-11-02T08:33:27.351Z,7.40
2022-11-02T08:35:54.689Z,7.50
2022-11-02T08:38:24.584Z,7.50
2022-11-02T08:40:51.776Z,7.60
2022-11-02T08:43:18.889Z,7.60
2022-11-02T08:48:33.457Z,7.60
2022-11-02T08:51:00.893Z,7.60
2022-11-02T08:53:28.129Z,7.60
2022-11-02T08:55:58.753Z,7.60
2022-11-02T08:58:26.613Z,7.60
2022-11-02T09:00:54.914Z,7.60
2022-11-02T09:03:26.956Z,7.70
2022-11-02T09:06:00.091Z,7.60
2022-11-02T09:08:28.269Z,7.60
2022-11-02T09:11:00.616Z,7.60
2022-11-02T09:13:28.625Z,7.50
2022-11-02T09:15:57.750Z,7.50
2022-11-02T09:18:25.274Z,7.50
2022-11-02T09:20:52.522Z,7.50
2022-11-02T09:23:21.350Z,7.50
2022-11-02T09:25:49.638Z,7.50
2022-11-02T09:28:16.885Z,7.50
2022-11-02T09:30:44.207Z,7.50
2022-11-02T09:33:12.039Z,7.60
2022-11-02T09:35:42.082Z,7.70
2022-11-02T09:38:09.382Z,7.70
2022-11-02T09:40:45.663Z,7.70
2022-11-02T09:43:40.612Z,7.80
2022-11-02T09:46:17.457Z,7.80
2022-11-02T09:49:12.314Z,7.80
2022-11-02T09:51:51.420Z,7.90
2022-11-02T09:54:34.471Z,7.90
2022-11-02T09:57:09.346Z,7.90
2022-11-02T09:59:36.709Z,8.00
2022-11-02T10:02:36.916Z,8.00
2022-11-02T10:05:10.725Z,8.00
2022-11-02T10:08:12.643Z,8.00
2022-11-02T10:10:55.080Z,8.10
2022-11-02T10:13:52.655Z,8.10
2022-11-02T10:16:35.910Z,8.10
2022-11-02T10:19:08.799Z,8.10
2022-11-02T10:21:39.463Z,8.10
2022-11-02T10:24:10.262Z,8.10
2022-11-02T10:26:43.365Z,8.10
2022-11-02T10:29:36.313Z,8.10
2022-11-02T10:32:03.661Z,8.10
2022-11-02T10:34:31.767Z,8.00
2022-11-02T10:37:26.611Z,8.00
2022-11-02T10:40:41.089Z,8.00
2022-11-02T10:43:50.965Z,8.00
2022-11-02T10:46:42.721Z,8.00
2022-11-02T10:49:48.458Z,8.00
2022-11-02T10:52:17.234Z,7.90
2022-11-02T10:54:44.610Z,8.00
2022-11-02T10:57:18.779Z,8.00
2022-11-02T11:00:07.399Z,8.00
2022-11-02T11:02:34.793Z,8.10
2022-11-02T11:05:14.645Z,8.10
2022-11-02T11:07:45.064Z,8.20
2022-11-02T11:10:16.011Z,8.20
2022-11-02T11:12:45.752Z,8.30
2022-11-02T11:21:02.479Z,8.50
2022-11-02T11:23:30.062Z,8.60
2022-11-02T11:26:04.906Z,8.70
2022-11-02T11:28:37.985Z,8.80
2022-11-02T11:31:17.568Z,8.90
2022-11-02T11:33:56.452Z,9.00
2022-11-02T11:36:35.651Z,9.20
2022-11-02T11:39:07.064Z,9.30
2022-11-02T11:41:39.352Z,9.40
2022-11-02T11:44:13.431Z,9.50
2022-11-02T11:46:48.029Z,9.50
2022-11-02T11:49:41.627Z,9.50
2022-11-02T11:52:20.269Z,9.70
2022-11-02T12:01:05.954Z,9.60
2022-11-02T12:04:03.880Z,9.60
2022-11-02T12:06:37.098Z,9.70
2022-11-02T12:09:07.217Z,9.70
2022-11-02T12:12:08.223Z,9.70
2022-11-02T12:15:02.562Z,9.70
2022-11-02T12:17:55.480Z,9.80
2022-11-02T12:20:53.867Z,9.80
2022-11-02T12:23:41.904Z,9.80
2022-11-02T12:26:42.236Z,9.80
2022-11-02T12:29:49.684Z,9.80
2022-11-02T12:32:50.757Z,9.90
2022-11-02T12:35:45.009Z,9.90
2022-11-02T12:38:35.543Z,9.90
2022-11-02T12:41:07.281Z,9.90
2022-11-02T12:43:54.041Z,9.90
2022-11-02T12:46:48.705Z,9.90
2022-11-02T12:50:40.783Z,9.80
2022-11-02T12:53:57.299Z,9.80
2022-11-02T12:56:39.441Z,9.80
2022-11-02T12:59:06.866Z,9.80
2022-11-02T13:01:42.998Z,9.80
2022-11-02T13:04:24.510Z,9.80
2022-11-02T13:07:04.409Z,9.80
2022-11-02T13:09:51.214Z,9.80
2022-11-02T13:12:22.582Z,9.80
2022-11-02T13:14:53.144Z,9.80
2022-11-02T13:17:54.923Z,9.90
2022-11-02T13:20:30.812Z,9.90
2022-11-02T13:23:14.661Z,10.00
2022-11-02T13:25:51.968Z,10.00
2022-11-02T13:28:42.378Z,10.10
2022-11-02T13:31:28.767Z,10.10
2022-11-02T13:34:00.324Z,10.10
2022-11-02T13:36:35.901Z,10.20
2022-11-02T13:39:19.528Z,10.20
2022-11-02T13:42:16.151Z,10.20
2022-11-02T13:45:28.856Z,10.20
2022-11-02T13:48:05.271Z,10.20
2022-11-02T13:50:35.309Z,10.20
2022-11-02T13:53:06.210Z,10.20
2022-11-02T13:55:45.950Z,10.20
2022-11-02T13:58:35.941Z,10.20
2022-11-02T14:01:06.804Z,10.10
2022-11-02T14:03:56.064Z,10.10
2022-11-02T14:06:26.562Z,10.10
2022-11-02T14:08:59.107Z,10.10
2022-11-02T14:11:50.128Z,10.10
2022-11-02T14:14:22.329Z,10.10
2022-11-02T14:16:49.868Z,10.10
2022-11-02T14:19:35.835Z,10.10
2022-11-02T14:22:29.329Z,10.10
2022-11-02T14:25:14.294Z,10.10
2022-11-02T14:27:41.924Z,10.20
2022-11-02T14:30:44.210Z,10.20
2022-11-02T14:33:31.002Z,10.20
2022-11-02T14:36:06.780Z,10.20
2022-11-02T14:39:04.378Z,10.20
2022-11-02T14:41:41.125Z,10.10
2022-11-02T14:44:21.497Z,10.10
2022-11-02T14:47:01.859Z,10.20
2022-11-02T14:49:35.275Z,10.20
2022-11-02T14:52:09.132Z,10.20
2022-11-02T14:54:50.365Z,10.20
2022-11-02T14:57:26.824Z,10.20
2022-11-02T14:59:58.711Z,10.20
2022-11-02T15:02:31.817Z,10.20
2022-11-02T15:05:01.569Z,10.20
2022-11-02T15:07:37.014Z,10.20
2022-11-02T15:31:00.638Z,10.10
2022-11-02T15:33:35.181Z,10.20
2022-11-02T15:36:17.093Z,10.20
2022-11-02T15:48:23.605Z,10.20
2022-11-02T15:51:23.092Z,10.20
2022-11-02T15:54:02.946Z,10.20
2022-11-02T17:12:10.832Z,10.70
2022-11-02T17:17:38.107Z,10.80
2022-11-02T17:20:22.890Z,10.90
2022-11-02T17:23:07.479Z,10.90
2022-11-02T17:39:49.966Z,10.90
2022-11-02T17:42:40.317Z,10.90
2022-11-02T17:45:46.247Z,10.90
2022-11-02T17:48:17.185Z,10.90
2022-11-02T17:53:33.294Z,10.80
2022-11-02T17:58:58.820Z,10.80
2022-11-02T18:01:32.597Z,10.80
2022-11-02T18:04:02.356Z,10.80
2022-11-02T18:06:31.241Z,10.80
2022-11-02T18:12:06.086Z,10.80
2022-11-02T22:33:40.327Z,10.40
2022-11-02T22:36:09.856Z,10.30
2022-11-02T22:38:51.838Z,10.30
2022-11-02T22:41:25.068Z,10.30
2022-11-02T22:43:55.226Z,10.30
2022-11-02T22:46:24.556Z,10.20
2022-11-02T22:48:53.210Z,10.20
2022-11-02T22:51:23.429Z,10.20
2022-11-02T22:53:51.635Z,10.20
2022-11-02T22:56:21.402Z,10.20
2022-11-02T22:58:49.693Z,10.20
2022-11-02T23:01:20.142Z,10.20
2022-11-02T23:03:49.253Z,10.20
2022-11-02T23:06:18.699Z,10.20
2022-11-02T23:08:46.695Z,10.20
2022-11-02T23:11:23.813Z,10.20
2022-11-02T23:14:05.395Z,10.20
2022-11-02T23:16:38.395Z,10.20
2022-11-02T23:19:28.581Z,10.20
2022-11-02T23:22:31.407Z,10.30
2022-11-02T23:25:15.521Z,10.30
2022-11-02T23:28:17.405Z,10.30
2022-11-02T23:31:03.101Z,10.20
2022-11-02T23:33:32.879Z,10.30
2022-11-02T23:36:15.495Z,10.30
2022-11-02T23:39:03.627Z,10.20
2022-11-02T23:41:33.536Z,10.20
2022-11-02T23:44:14.263Z,10.10
2022-11-02T23:46:43.467Z,10.10
2022-11-02T23:49:11.700Z,10.10
2022-11-02T23:51:57.835Z,10.10
2022-11-02T23:54:44.040Z,10.10
2022-11-02T23:57:11.800Z,10.00
2022-11-02T23:59:40.505Z,10.00
